createdAt,value
2022-10-19T00:00:49.685Z,989.81
2022-10-19T00:00:58.166Z,989.81
2022-10-19T00:01:29.030Z,989.81
2022-10-19T00:02:00.533Z,989.60
2022-10-19T00:02:31.452Z,989.60
2022-10-19T00:03:02.044Z,989.91
2022-10-19T00:03:32.950Z,989.91
2022-10-19T00:04:07.896Z,989.81
2022-10-19T00:04:37.185Z,989.81
2022-10-19T00:05:07.917Z,989.60
2022-10-19T00:05:37.436Z,989.60
2022-10-19T00:06:09.056Z,989.70
2022-10-19T00:06:38.987Z,989.70
2022-10-19T00:07:10.003Z,989.50
2022-10-19T00:07:58.371Z,989.60
2022-10-19T00:08:15.161Z,989.60
2022-10-19T00:08:43.514Z,989.60
2022-10-19T00:18:34.502Z,989.70
2022-10-19T00:19:15.467Z,989.60
2022-10-19T00:19:52.084Z,989.60
2022-10-19T00:20:23.645Z,989.70
2022-10-19T00:20:52.925Z,989.70
2022-10-19T00:21:26.401Z,989.50
2022-10-19T00:21:39.798Z,989.50
2022-10-19T00:22:14.152Z,989.81
2022-10-19T00:22:40.655Z,989.81
2022-10-19T00:23:14.757Z,989.81
2022-10-19T00:23:42.314Z,989.81
2022-10-19T00:24:14.579Z,989.70
2022-10-19T00:24:44.396Z,989.70
2022-10-19T00:25:15.504Z,989.70
2022-10-19T00:25:49.392Z,989.70
2022-10-19T00:26:24.449Z,989.70
2022-10-19T00:26:50.118Z,989.70
2022-10-19T00:27:21.126Z,989.60
2022-10-19T00:27:59.573Z,989.60
2022-10-19T00:28:21.697Z,989.50
2022-10-19T00:28:52.990Z,989.50
2022-10-19T00:29:24.054Z,989.60
2022-10-19T00:29:55.374Z,989.70
2022-10-19T00:30:30.918Z,989.70
2022-10-19T00:31:01.125Z,989.60
2022-10-19T00:31:29.516Z,989.60
2022-10-19T00:32:00.106Z,989.50
2022-10-19T00:32:32.291Z,989.50
2022-10-19T00:33:11.491Z,989.70
2022-10-19T00:33:40.710Z,989.70
2022-10-19T00:34:05.823Z,989.50
2022-10-19T00:34:41.796Z,989.50
2022-10-19T00:35:06.041Z,989.50
2022-10-19T00:35:37.710Z,989.50
2022-10-19T00:36:10.048Z,989.60
2022-10-19T00:36:44.372Z,989.60
2022-10-19T00:37:11.878Z,989.60
2022-10-19T00:37:43.991Z,989.60
2022-10-19T00:38:30.764Z,989.50
2022-10-19T00:38:41.722Z,989.50
2022-10-19T00:39:12.819Z,989.40
2022-10-19T00:39:43.784Z,989.40
2022-10-19T00:40:15.396Z,989.60
2022-10-19T00:41:17.079Z,989.60
2022-10-19T00:41:50.448Z,989.60
2022-10-19T00:42:20.480Z,989.50
2022-10-19T00:42:51.180Z,989.50
2022-10-19T00:43:21.588Z,989.60
2022-10-19T00:43:51.873Z,989.60
2022-10-19T00:44:22.899Z,989.50
2022-10-19T00:44:54.105Z,989.50
2022-10-19T00:45:24.837Z,989.60
2022-10-19T00:46:05.328Z,989.60
2022-10-19T00:46:27.076Z,989.60
2022-10-19T00:46:59.778Z,989.60
2022-10-19T00:47:30.873Z,989.60
2022-10-19T00:48:38.235Z,989.60
2022-10-19T00:49:33.000Z,989.60
2022-10-19T00:50:13.954Z,989.70
2022-10-19T00:50:34.786Z,989.70
2022-10-19T00:51:08.901Z,989.50
2022-10-19T00:51:40.909Z,989.50
2022-10-19T00:52:10.897Z,989.81
2022-10-19T00:52:41.294Z,989.81
2022-10-19T00:53:11.072Z,989.70
2022-10-19T00:53:41.252Z,989.70
2022-10-19T00:54:12.272Z,989.50
2022-10-19T00:54:42.451Z,989.50
2022-10-19T00:55:51.825Z,989.60
2022-10-19T00:56:16.000Z,989.60
2022-10-19T00:56:47.306Z,989.60
2022-10-19T00:57:18.628Z,989.50
2022-10-19T00:58:26.101Z,989.60
2022-10-19T00:58:51.417Z,989.60
2022-10-19T00:59:24.255Z,989.50
2022-10-19T00:59:53.495Z,989.50
2022-10-19T01:00:26.749Z,989.60
2022-10-19T01:01:01.422Z,989.40
2022-10-19T01:01:51.946Z,989.40
2022-10-19T01:01:56.696Z,989.50
2022-10-19T01:02:41.505Z,989.50
2022-10-19T01:03:36.170Z,989.40
2022-10-19T01:07:12.501Z,989.70
2022-10-19T01:07:53.339Z,989.50
2022-10-19T01:08:26.201Z,989.60
2022-10-19T01:08:50.284Z,989.60
2022-10-19T01:09:24.346Z,989.70
2022-10-19T01:09:43.176Z,989.70
2022-10-19T01:10:13.706Z,989.81
2022-10-19T01:11:14.042Z,989.81
2022-10-19T01:11:46.311Z,989.81
2022-10-19T01:13:04.825Z,989.81
2022-10-19T01:13:22.978Z,989.60
2022-10-19T01:13:53.519Z,989.60
2022-10-19T01:14:31.639Z,989.60
2022-10-19T01:14:53.076Z,989.60
2022-10-19T01:15:23.794Z,989.60
2022-10-19T01:16:24.693Z,989.50
2022-10-19T01:16:55.806Z,989.60
2022-10-19T01:17:26.200Z,989.60
2022-10-19T01:17:58.534Z,989.60
2022-10-19T01:18:28.821Z,989.60
2022-10-19T01:19:00.679Z,989.70
2022-10-19T01:19:32.611Z,989.70
2022-10-19T01:20:07.202Z,989.60
2022-10-19T01:20:33.868Z,989.60
2022-10-19T01:21:03.953Z,989.50
2022-10-19T01:21:34.493Z,989.50
2022-10-19T01:22:11.381Z,989.50
2022-10-19T01:22:37.432Z,989.50
2022-10-19T01:23:07.646Z,989.60
2022-10-19T01:23:38.502Z,989.60
2022-10-19T01:24:11.537Z,989.40
2022-10-19T01:24:43.041Z,989.40
2022-10-19T01:25:13.587Z,989.50
2022-10-19T01:25:43.476Z,989.50
2022-10-19T01:26:45.105Z,989.60
2022-10-19T01:27:16.131Z,989.50
2022-10-19T01:27:47.100Z,989.50
2022-10-19T01:28:17.511Z,989.50
2022-10-19T01:28:48.644Z,989.50
2022-10-19T01:29:20.699Z,989.50
2022-10-19T01:29:53.001Z,989.50
2022-10-19T01:30:24.599Z,989.60
2022-10-19T01:30:53.605Z,989.60
2022-10-19T01:31:23.778Z,989.70
2022-10-19T01:31:54.700Z,989.40
2022-10-19T01:32:26.024Z,989.40
2022-10-19T01:32:57.010Z,989.60
2022-10-19T01:33:27.619Z,989.60
2022-10-19T01:33:58.634Z,989.50
2022-10-19T01:34:29.553Z,989.50
2022-10-19T01:35:03.391Z,989.70
2022-10-19T01:35:33.033Z,989.70
2022-10-19T01:36:24.177Z,989.70
2022-10-19T01:36:55.255Z,989.60
2022-10-19T01:37:25.967Z,989.60
2022-10-19T01:37:56.453Z,989.50
2022-10-19T01:38:27.717Z,989.50
2022-10-19T01:38:58.311Z,989.70
2022-10-19T01:39:29.329Z,989.70
2022-10-19T01:40:03.154Z,989.50
2022-10-19T01:40:33.119Z,989.50
2022-10-19T01:41:03.808Z,989.70
2022-10-19T01:41:33.719Z,989.70
2022-10-19T01:42:04.726Z,989.60
2022-10-19T01:42:35.741Z,989.60
2022-10-19T01:43:06.481Z,989.81
2022-10-19T01:43:37.629Z,989.81
2022-10-19T01:44:09.351Z,989.60
2022-10-19T01:44:39.704Z,989.60
2022-10-19T01:45:13.810Z,989.70
2022-10-19T01:45:43.211Z,989.70
2022-10-19T01:46:29.784Z,989.60
2022-10-19T01:46:43.654Z,989.60
2022-10-19T01:47:15.248Z,989.50
2022-10-19T01:47:45.740Z,989.50
2022-10-19T01:48:16.684Z,989.50
2022-10-19T01:48:47.590Z,989.50
2022-10-19T01:49:18.778Z,989.50
2022-10-19T01:49:49.332Z,989.50
2022-10-19T01:50:23.041Z,989.30
2022-10-19T01:50:53.565Z,989.30
2022-10-19T01:51:23.606Z,989.50
2022-10-19T01:51:53.677Z,989.50
2022-10-19T01:52:25.728Z,989.30
2022-10-19T01:52:55.778Z,989.30
2022-10-19T01:53:26.398Z,989.30
2022-10-19T01:53:57.369Z,989.40
2022-10-19T01:54:28.634Z,989.40
2022-10-19T01:54:59.517Z,989.20
2022-10-19T01:55:32.722Z,989.20
2022-10-19T01:56:19.099Z,989.30
2022-10-19T01:56:33.124Z,989.30
2022-10-19T01:57:06.346Z,989.30
2022-10-19T01:57:34.774Z,989.30
2022-10-19T01:58:08.361Z,989.60
2022-10-19T01:58:36.641Z,989.60
2022-10-19T01:59:07.532Z,989.30
2022-10-19T01:59:38.810Z,989.30
2022-10-19T02:00:14.747Z,989.09
2022-10-19T02:00:43.705Z,989.09
2022-10-19T02:02:25.292Z,989.40
2022-10-19T02:02:46.692Z,989.50
2022-10-19T02:03:28.495Z,989.50
2022-10-19T02:03:46.917Z,989.50
2022-10-19T02:04:18.393Z,989.20
2022-10-19T02:04:48.678Z,989.20
2022-10-19T02:05:21.588Z,989.40
2022-10-19T02:05:54.663Z,989.40
2022-10-19T02:06:23.498Z,989.30
2022-10-19T02:06:53.790Z,989.30
2022-10-19T02:07:24.039Z,989.40
2022-10-19T02:08:02.264Z,989.30
2022-10-19T02:08:35.241Z,989.30
2022-10-19T02:08:59.845Z,989.20
2022-10-19T02:09:33.743Z,989.20
2022-10-19T02:10:04.211Z,989.30
2022-10-19T02:10:33.232Z,989.30
2022-10-19T02:11:04.314Z,989.40
2022-10-19T02:11:39.789Z,989.40
2022-10-19T02:12:13.429Z,989.30
2022-10-19T02:12:35.930Z,989.30
2022-10-19T02:13:05.911Z,989.20
2022-10-19T02:13:36.027Z,989.20
2022-10-19T02:14:06.868Z,989.20
2022-10-19T02:14:37.701Z,989.20
2022-10-19T02:15:10.093Z,989.40
2022-10-19T02:15:42.235Z,989.40
2022-10-19T02:16:13.025Z,989.20
2022-10-19T02:16:43.572Z,989.20
2022-10-19T02:17:14.416Z,989.30
2022-10-19T02:17:44.306Z,989.30
2022-10-19T02:18:15.090Z,989.09
2022-10-19T02:18:45.723Z,989.09
2022-10-19T02:19:17.272Z,988.99
2022-10-19T02:19:47.615Z,988.99
2022-10-19T02:20:24.816Z,989.09
2022-10-19T02:20:50.319Z,989.09
2022-10-19T02:21:22.007Z,989.09
2022-10-19T02:21:53.550Z,989.09
2022-10-19T02:22:24.267Z,989.09
2022-10-19T02:23:14.031Z,988.99
2022-10-19T02:23:24.706Z,988.99
2022-10-19T02:23:55.852Z,989.09
2022-10-19T02:24:26.783Z,989.09
2022-10-19T02:24:58.117Z,989.09
2022-10-19T02:25:28.704Z,989.09
2022-10-19T02:25:59.482Z,988.89
2022-10-19T02:26:32.507Z,988.89
2022-10-19T02:27:05.023Z,988.89
2022-10-19T02:27:33.915Z,988.89
2022-10-19T02:28:05.731Z,988.99
2022-10-19T02:28:35.765Z,988.99
2022-10-19T02:29:06.589Z,989.20
2022-10-19T02:30:15.646Z,988.99
2022-10-19T02:30:41.783Z,988.99
2022-10-19T02:31:14.681Z,989.09
2022-10-19T02:32:16.649Z,989.20
2022-10-19T02:32:44.151Z,989.20
2022-10-19T02:33:15.252Z,988.99
2022-10-19T02:33:45.068Z,988.99
2022-10-19T02:34:16.184Z,989.09
2022-10-19T02:34:47.466Z,989.09
2022-10-19T02:35:18.555Z,989.20
2022-10-19T02:35:48.987Z,989.20
2022-10-19T02:36:20.152Z,989.20
2022-10-19T02:36:51.197Z,989.20
2022-10-19T02:37:25.534Z,989.20
2022-10-19T02:37:54.129Z,989.20
2022-10-19T02:38:24.310Z,989.09
2022-10-19T02:38:54.854Z,989.09
2022-10-19T02:39:25.718Z,989.09
2022-10-19T02:39:56.973Z,989.09
2022-10-19T02:40:28.694Z,989.09
2022-10-19T02:41:16.369Z,989.09
2022-10-19T02:41:29.667Z,989.09
2022-10-19T02:42:01.546Z,988.99
2022-10-19T02:42:34.690Z,988.99
2022-10-19T02:43:04.297Z,989.20
2022-10-19T02:43:34.505Z,989.20
2022-10-19T02:44:05.421Z,989.20
2022-10-19T02:44:35.812Z,989.20
2022-10-19T02:45:08.581Z,989.30
2022-10-19T02:45:38.289Z,989.30
2022-10-19T02:46:09.439Z,989.09
2022-10-19T02:47:14.594Z,988.99
2022-10-19T02:47:43.893Z,988.99
2022-10-19T02:48:15.968Z,989.30
2022-10-19T02:48:44.395Z,989.30
2022-10-19T02:49:15.721Z,989.09
2022-10-19T02:50:25.181Z,988.99
2022-10-19T02:50:48.009Z,988.99
2022-10-19T02:51:19.211Z,989.20
2022-10-19T02:51:49.670Z,989.20
2022-10-19T02:52:21.003Z,989.30
2022-10-19T02:52:54.191Z,989.30
2022-10-19T02:53:37.476Z,989.30
2022-10-19T02:53:54.873Z,989.30
2022-10-19T02:54:25.070Z,989.30
2022-10-19T02:54:59.187Z,989.30
2022-10-19T02:55:28.033Z,989.30
2022-10-19T02:55:59.004Z,989.09
2022-10-19T02:56:29.331Z,989.09
2022-10-19T02:57:00.337Z,989.09
2022-10-19T02:57:34.531Z,989.09
2022-10-19T02:58:04.850Z,989.09
2022-10-19T02:58:34.673Z,989.09
2022-10-19T02:59:23.553Z,989.20
2022-10-19T02:59:35.049Z,989.20
2022-10-19T03:00:14.948Z,989.40
2022-10-19T03:00:39.913Z,989.40
2022-10-19T03:01:08.229Z,988.99
2022-10-19T03:01:39.528Z,988.99
2022-10-19T03:02:10.574Z,989.20
2022-10-19T03:02:43.328Z,989.20
2022-10-19T03:03:15.261Z,989.09
2022-10-19T03:03:43.495Z,989.09
2022-10-19T03:04:16.028Z,989.09
2022-10-19T03:04:49.021Z,989.09
2022-10-19T03:05:49.290Z,989.09
2022-10-19T03:05:55.091Z,989.09
2022-10-19T03:06:24.846Z,989.09
2022-10-19T03:06:54.633Z,989.09
2022-10-19T03:07:20.646Z,988.99
2022-10-19T03:07:51.255Z,988.99
2022-10-19T03:08:27.299Z,989.09
2022-10-19T03:08:54.893Z,989.09
2022-10-19T03:09:24.959Z,989.09
2022-10-19T03:09:57.028Z,989.09
2022-10-19T03:10:26.274Z,989.09
2022-10-19T03:11:01.920Z,988.89
2022-10-19T03:11:59.363Z,988.79
2022-10-19T03:12:30.547Z,988.79
2022-10-19T03:13:01.017Z,988.99
2022-10-19T03:13:32.218Z,988.99
2022-10-19T03:14:05.047Z,988.89
2022-10-19T03:14:35.304Z,988.89
2022-10-19T03:15:07.368Z,988.99
2022-10-19T03:15:37.016Z,988.99
2022-10-19T03:16:38.832Z,988.89
2022-10-19T03:17:10.651Z,989.09
2022-10-19T03:17:43.620Z,989.09
2022-10-19T03:18:15.595Z,989.20
2022-10-19T03:18:45.084Z,989.20
2022-10-19T03:19:16.130Z,989.09
2022-10-19T03:19:45.555Z,989.09
2022-10-19T03:20:16.120Z,989.09
2022-10-19T03:20:47.662Z,989.09
2022-10-19T03:21:24.980Z,989.09
2022-10-19T03:21:48.724Z,989.09
2022-10-19T03:22:19.459Z,989.09
2022-10-19T03:22:50.165Z,989.09
2022-10-19T03:23:21.671Z,989.09
2022-10-19T03:23:52.470Z,989.09
2022-10-19T03:24:25.220Z,988.79
2022-10-19T03:25:00.038Z,989.09
2022-10-19T03:25:31.016Z,989.09
2022-10-19T03:25:58.830Z,989.20
2022-10-19T03:26:35.387Z,989.20
2022-10-19T03:27:15.301Z,989.20
2022-10-19T03:27:35.991Z,989.20
2022-10-19T03:28:05.717Z,989.20
2022-10-19T03:28:31.303Z,989.20
2022-10-19T03:29:02.694Z,989.09
2022-10-19T03:29:35.991Z,989.09
2022-10-19T03:30:05.796Z,989.09
2022-10-19T03:30:36.590Z,989.09
2022-10-19T03:31:06.671Z,989.30
2022-10-19T03:31:37.236Z,989.30
2022-10-19T03:32:08.742Z,989.09
2022-10-19T03:32:39.806Z,989.09
2022-10-19T03:33:11.441Z,989.30
2022-10-19T03:33:41.670Z,989.30
2022-10-19T03:34:15.101Z,989.30
2022-10-19T03:34:45.541Z,989.30
2022-10-19T03:35:17.336Z,989.20
2022-10-19T03:35:45.906Z,989.20
2022-10-19T03:36:16.297Z,989.40
2022-10-19T03:36:47.233Z,989.40
2022-10-19T03:37:18.546Z,989.40
2022-10-19T03:37:49.259Z,989.40
2022-10-19T03:38:19.921Z,989.20
2022-10-19T03:38:51.098Z,989.20
2022-10-19T03:39:21.836Z,989.30
2022-10-19T03:39:54.832Z,989.30
2022-10-19T03:40:25.385Z,989.30
2022-10-19T03:40:55.287Z,989.20
2022-10-19T03:41:26.499Z,989.20
2022-10-19T03:41:56.804Z,989.40
2022-10-19T03:42:28.024Z,989.40
2022-10-19T03:42:59.107Z,989.60
2022-10-19T03:43:30.102Z,989.60
2022-10-19T03:44:32.035Z,989.30
2022-10-19T03:45:35.778Z,989.20
2022-10-19T03:46:05.705Z,989.50
2022-10-19T03:46:35.769Z,989.50
2022-10-19T03:47:06.918Z,989.50
2022-10-19T03:47:38.053Z,989.50
2022-10-19T03:48:09.069Z,989.50
2022-10-19T03:48:39.614Z,989.50
2022-10-19T03:49:10.797Z,989.40
2022-10-19T03:49:42.075Z,989.40
2022-10-19T03:50:16.188Z,989.40
2022-10-19T03:50:45.267Z,989.40
2022-10-19T03:51:15.981Z,989.50
2022-10-19T03:51:46.192Z,989.50
2022-10-19T03:52:17.039Z,989.50
2022-10-19T03:52:48.109Z,989.50
2022-10-19T03:53:19.066Z,989.40
2022-10-19T03:53:49.759Z,989.40
2022-10-19T03:54:23.673Z,989.50
2022-10-19T03:54:51.815Z,989.50
2022-10-19T03:55:24.831Z,989.60
2022-10-19T03:55:55.533Z,989.50
2022-10-19T03:56:25.692Z,989.50
2022-10-19T03:56:55.961Z,989.60
2022-10-19T03:57:26.893Z,989.60
2022-10-19T03:57:58.110Z,989.60
2022-10-19T03:58:28.951Z,989.60
2022-10-19T03:58:59.762Z,989.30
2022-10-19T03:59:50.277Z,989.30
2022-10-19T04:00:09.538Z,989.50
2022-10-19T04:00:33.001Z,989.50
2022-10-19T04:01:08.425Z,989.70
2022-10-19T04:01:54.147Z,989.70
2022-10-19T04:02:23.094Z,989.70
2022-10-19T04:02:38.410Z,989.70
2022-10-19T04:03:09.410Z,989.81
2022-10-19T04:03:39.479Z,989.81
2022-10-19T04:04:09.829Z,989.60
2022-10-19T04:04:40.935Z,989.60
2022-10-19T04:05:11.848Z,989.60
2022-10-19T04:05:43.085Z,989.60
2022-10-19T04:06:16.910Z,989.60
2022-10-19T04:06:45.528Z,989.60
2022-10-19T04:07:15.868Z,989.70
2022-10-19T04:07:48.767Z,989.70
2022-10-19T04:08:19.209Z,989.70
2022-10-19T04:08:49.353Z,989.70
2022-10-19T04:09:20.006Z,989.50
2022-10-19T04:09:51.026Z,989.50
2022-10-19T04:10:23.495Z,989.81
2022-10-19T04:10:53.009Z,989.81
2022-10-19T04:11:24.048Z,989.60
2022-10-19T04:11:55.182Z,989.70
2022-10-19T04:12:26.119Z,989.70
2022-10-19T04:12:57.925Z,989.60
2022-10-19T04:13:29.384Z,989.60
2022-10-19T04:13:59.378Z,989.70
2022-10-19T04:14:33.280Z,989.70
2022-10-19T04:15:02.251Z,989.70
2022-10-19T04:15:32.047Z,989.70
2022-10-19T04:16:03.508Z,989.70
2022-10-19T04:16:34.486Z,989.70
2022-10-19T04:17:05.843Z,989.81
2022-10-19T04:17:36.225Z,989.81
2022-10-19T04:18:08.975Z,989.60
2022-10-19T04:18:39.534Z,989.60
2022-10-19T04:19:09.351Z,989.60
2022-10-19T04:19:39.947Z,989.60
2022-10-19T04:20:12.075Z,989.70
2022-10-19T04:20:42.070Z,989.70
2022-10-19T04:21:13.159Z,989.81
2022-10-19T04:21:47.247Z,989.81
2022-10-19T04:22:15.432Z,989.81
2022-10-19T04:22:48.670Z,989.81
2022-10-19T04:23:19.413Z,989.30
2022-10-19T04:23:59.123Z,989.60
2022-10-19T04:24:20.800Z,989.60
2022-10-19T04:24:50.166Z,989.60
2022-10-19T04:25:21.030Z,989.60
2022-10-19T04:25:52.050Z,989.60
2022-10-19T04:26:23.003Z,989.70
2022-10-19T04:27:12.159Z,989.60
2022-10-19T04:27:24.942Z,989.60
2022-10-19T04:28:29.405Z,989.60
2022-10-19T04:28:59.388Z,989.70
2022-10-19T04:29:30.152Z,989.70
2022-10-19T04:30:01.463Z,989.70
2022-10-19T04:30:32.073Z,989.70
2022-10-19T04:31:02.379Z,989.60
2022-10-19T04:31:33.691Z,989.60
2022-10-19T04:32:04.472Z,989.50
2022-10-19T04:32:35.954Z,989.50
2022-10-19T04:33:07.965Z,989.60
2022-10-19T04:33:38.512Z,989.60
2022-10-19T04:34:08.498Z,989.60
2022-10-19T04:34:40.198Z,989.60
2022-10-19T04:35:11.508Z,989.60
2022-10-19T04:35:41.324Z,989.60
2022-10-19T04:36:11.865Z,989.81
2022-10-19T04:36:43.330Z,989.81
2022-10-19T04:37:18.788Z,989.91
2022-10-19T04:37:47.371Z,989.91
2022-10-19T04:38:17.599Z,989.60
2022-10-19T04:38:48.812Z,989.60
2022-10-19T04:39:20.085Z,989.81
2022-10-19T04:39:50.508Z,989.81
2022-10-19T04:40:40.239Z,989.50
2022-10-19T04:40:51.335Z,989.50
2022-10-19T04:41:21.978Z,989.70
2022-10-19T04:41:53.401Z,989.70
2022-10-19T04:42:24.164Z,989.70
2022-10-19T04:42:55.365Z,989.70
2022-10-19T04:43:26.021Z,989.70
2022-10-19T04:43:58.752Z,989.60
2022-10-19T04:44:29.482Z,989.60
2022-10-19T04:45:01.098Z,989.91
2022-10-19T04:45:31.623Z,989.91
2022-10-19T04:46:01.878Z,989.70
2022-10-19T04:46:32.174Z,989.70
2022-10-19T04:47:03.477Z,989.91
2022-10-19T04:47:34.437Z,989.91
2022-10-19T04:48:05.472Z,989.70
2022-10-19T04:48:37.477Z,989.70
2022-10-19T04:49:09.133Z,989.60
2022-10-19T04:49:39.498Z,989.60
2022-10-19T04:50:11.733Z,989.81
2022-10-19T04:51:11.501Z,989.70
2022-10-19T04:51:42.989Z,989.70
2022-10-19T04:52:13.451Z,989.81
2022-10-19T04:52:44.345Z,989.81
2022-10-19T04:53:20.063Z,989.50
2022-10-19T04:53:46.400Z,989.50
2022-10-19T04:54:20.794Z,989.60
2022-10-19T04:54:49.164Z,989.60
2022-10-19T04:55:20.742Z,989.81
2022-10-19T04:55:50.606Z,989.81
2022-10-19T04:56:21.389Z,989.81
2022-10-19T04:56:52.423Z,989.81
2022-10-19T04:57:23.082Z,989.60
2022-10-19T04:57:54.380Z,989.50
2022-10-19T04:58:25.244Z,989.50
2022-10-19T04:58:56.379Z,989.91
2022-10-19T04:59:30.041Z,989.91
2022-10-19T05:00:00.039Z,989.60
2022-10-19T05:00:31.156Z,989.60
2022-10-19T05:01:00.535Z,989.60
2022-10-19T05:01:33.117Z,989.60
2022-10-19T05:02:03.395Z,989.70
2022-10-19T05:02:33.288Z,989.70
2022-10-19T05:03:49.511Z,989.81
2022-10-19T05:04:23.606Z,989.50
2022-10-19T05:04:41.823Z,989.50
2022-10-19T05:05:40.215Z,989.81
2022-10-19T05:06:37.294Z,989.60
2022-10-19T05:06:41.438Z,989.60
2022-10-19T05:07:12.435Z,989.91
2022-10-19T05:07:43.672Z,989.91
2022-10-19T05:08:14.413Z,989.50
2022-10-19T05:08:45.373Z,989.50
2022-10-19T05:09:16.586Z,989.91
2022-10-19T05:09:48.876Z,989.91
2022-10-19T05:10:19.496Z,989.70
2022-10-19T05:10:49.772Z,989.70
2022-10-19T05:11:20.631Z,989.70
2022-10-19T05:11:51.195Z,989.70
2022-10-19T05:12:59.265Z,989.70
2022-10-19T05:13:41.507Z,989.60
2022-10-19T05:13:55.283Z,989.50
2022-10-19T05:14:58.598Z,989.60
2022-10-19T05:18:10.664Z,989.60
2022-10-19T05:18:36.918Z,989.50
2022-10-19T05:19:05.135Z,989.70
2022-10-19T05:19:37.978Z,989.70
2022-10-19T05:20:10.238Z,989.70
2022-10-19T05:20:39.619Z,989.70
2022-10-19T05:21:10.764Z,989.81
2022-10-19T05:21:40.647Z,989.81
2022-10-19T05:22:11.572Z,989.50
2022-10-19T05:23:04.605Z,989.50
2022-10-19T05:23:13.129Z,989.70
2022-10-19T05:24:00.986Z,989.70
2022-10-19T05:24:16.091Z,989.60
2022-10-19T05:24:50.253Z,989.60
2022-10-19T05:25:19.163Z,989.60
2022-10-19T05:25:49.724Z,989.60
2022-10-19T05:26:21.937Z,989.70
2022-10-19T05:27:00.226Z,989.70
2022-10-19T05:27:21.716Z,989.50
2022-10-19T05:27:52.666Z,989.50
2022-10-19T05:28:23.329Z,989.60
2022-10-19T05:28:54.668Z,989.91
2022-10-19T05:29:42.596Z,989.91
2022-10-19T05:29:56.830Z,989.60
2022-10-19T05:30:31.293Z,989.60
2022-10-19T05:31:00.246Z,989.70
2022-10-19T05:31:30.709Z,989.70
2022-10-19T05:32:00.931Z,989.70
2022-10-19T05:39:15.622Z,989.70
2022-10-19T05:43:40.116Z,989.70
2022-10-19T05:43:54.245Z,989.60
2022-10-19T05:44:25.477Z,989.70
2022-10-19T05:44:56.829Z,989.70
2022-10-19T05:45:28.762Z,989.70
2022-10-19T05:45:58.427Z,989.70
2022-10-19T05:46:29.213Z,989.70
2022-10-19T05:46:59.707Z,989.70
2022-10-19T05:47:31.173Z,989.70
2022-10-19T05:48:02.161Z,989.50
2022-10-19T05:48:32.555Z,989.50
2022-10-19T05:49:03.681Z,989.81
2022-10-19T05:49:34.739Z,989.81
2022-10-19T05:50:08.207Z,989.70
2022-10-19T05:50:38.463Z,989.70
2022-10-19T05:51:10.351Z,989.70
2022-10-19T05:51:39.817Z,989.70
2022-10-19T05:52:10.326Z,989.70
2022-10-19T05:52:40.444Z,989.70
2022-10-19T05:53:12.542Z,989.81
2022-10-19T05:53:42.877Z,989.81
2022-10-19T05:54:14.717Z,989.81
2022-10-19T05:54:44.743Z,989.81
2022-10-19T05:55:17.316Z,989.70
2022-10-19T05:55:48.106Z,989.70
2022-10-19T05:56:19.646Z,989.70
2022-10-19T05:56:49.024Z,989.70
2022-10-19T05:57:20.890Z,989.81
2022-10-19T05:57:50.896Z,989.81
2022-10-19T05:58:22.289Z,989.70
2022-10-19T05:58:52.847Z,989.70
2022-10-19T05:59:24.139Z,990.01
2022-10-19T05:59:54.871Z,989.81
2022-10-19T06:00:27.695Z,989.81
2022-10-19T06:00:58.778Z,989.70
2022-10-19T06:01:28.698Z,989.70
2022-10-19T06:01:59.202Z,989.81
2022-10-19T06:02:29.673Z,989.81
2022-10-19T06:03:00.727Z,989.81
2022-10-19T06:03:31.671Z,989.81
2022-10-19T06:04:03.021Z,989.60
2022-10-19T06:04:33.805Z,989.60
2022-10-19T06:05:04.973Z,989.91
2022-10-19T06:05:35.745Z,989.91
2022-10-19T06:06:08.897Z,989.91
2022-10-19T06:06:38.985Z,989.91
2022-10-19T06:07:09.730Z,989.91
2022-10-19T06:07:40.373Z,989.91
2022-10-19T06:08:11.087Z,989.81
2022-10-19T06:08:41.487Z,989.81
2022-10-19T06:09:13.712Z,989.91
2022-10-19T06:09:43.992Z,989.91
2022-10-19T06:10:48.517Z,990.01
2022-10-19T06:11:19.037Z,990.01
2022-10-19T06:11:48.739Z,990.01
2022-10-19T06:12:36.151Z,989.81
2022-10-19T06:12:49.797Z,989.81
2022-10-19T06:13:20.878Z,989.81
2022-10-19T06:13:51.753Z,989.81
2022-10-19T06:14:22.664Z,989.70
2022-10-19T06:14:54.043Z,989.70
2022-10-19T06:15:25.184Z,989.81
2022-10-19T06:15:55.719Z,989.91
2022-10-19T06:16:28.973Z,989.91
2022-10-19T06:16:59.821Z,990.01
2022-10-19T06:17:29.567Z,990.01
2022-10-19T06:17:59.725Z,989.91
2022-10-19T06:18:30.476Z,989.91
2022-10-19T06:19:01.811Z,989.81
2022-10-19T06:19:32.400Z,989.81
2022-10-19T06:20:04.968Z,990.01
2022-10-19T06:20:34.590Z,990.01
2022-10-19T06:21:06.004Z,989.81
2022-10-19T06:21:40.658Z,989.81
2022-10-19T06:22:10.114Z,989.91
2022-10-19T06:22:39.580Z,989.91
2022-10-19T06:23:10.720Z,989.81
2022-10-19T06:24:12.108Z,989.91
2022-10-19T06:24:42.786Z,989.91
2022-10-19T06:25:17.981Z,990.21
2022-10-19T06:25:44.765Z,990.21
2022-10-19T06:26:16.538Z,989.91
2022-10-19T06:26:48.121Z,989.91
2022-10-19T06:27:19.735Z,990.01
2022-10-19T06:27:50.130Z,990.01
2022-10-19T06:28:19.963Z,990.01
2022-10-19T06:28:51.761Z,990.01
2022-10-19T06:29:21.736Z,990.01
2022-10-19T06:29:52.486Z,990.01
2022-10-19T06:30:24.784Z,989.81
2022-10-19T06:30:54.757Z,990.11
2022-10-19T06:31:59.337Z,990.11
2022-10-19T06:32:29.336Z,990.11
2022-10-19T06:32:59.584Z,990.11
2022-10-19T06:33:30.119Z,990.11
2022-10-19T06:34:01.032Z,990.01
2022-10-19T06:34:32.146Z,990.01
2022-10-19T06:35:03.673Z,990.01
2022-10-19T06:35:34.109Z,990.01
2022-10-19T06:36:05.608Z,989.91
2022-10-19T06:36:36.384Z,989.91
2022-10-19T06:37:08.843Z,990.11
2022-10-19T06:38:10.010Z,990.01
2022-10-19T06:38:40.223Z,990.01
2022-10-19T06:39:11.538Z,990.01
2022-10-19T06:39:41.807Z,990.01
2022-10-19T06:40:13.681Z,990.11
2022-10-19T06:40:43.872Z,990.11
2022-10-19T06:41:15.234Z,990.01
2022-10-19T06:41:45.764Z,990.01
2022-10-19T06:42:17.112Z,989.91
2022-10-19T06:42:48.939Z,989.91
2022-10-19T06:43:20.098Z,989.81
2022-10-19T06:43:50.083Z,989.81
2022-10-19T06:44:21.085Z,990.11
2022-10-19T06:44:52.132Z,990.11
2022-10-19T06:45:22.926Z,990.11
2022-10-19T06:45:54.013Z,990.01
2022-10-19T06:46:24.655Z,990.01
2022-10-19T06:46:55.870Z,989.91
2022-10-19T06:47:28.272Z,989.91
2022-10-19T06:48:02.212Z,990.01
2022-10-19T06:48:29.510Z,990.01
2022-10-19T06:48:59.879Z,990.31
2022-10-19T06:49:30.938Z,990.31
2022-10-19T06:50:02.899Z,990.11
2022-10-19T06:50:32.795Z,990.11
2022-10-19T06:51:06.257Z,990.11
2022-10-19T06:51:34.782Z,990.11
2022-10-19T06:52:06.032Z,990.11
2022-10-19T06:52:39.201Z,990.11
2022-10-19T06:53:10.438Z,990.11
2022-10-19T06:53:40.009Z,990.11
2022-10-19T06:54:10.860Z,990.01
2022-10-19T06:54:41.020Z,990.01
2022-10-19T06:55:11.914Z,990.11
2022-10-19T06:55:42.962Z,990.11
2022-10-19T06:56:14.376Z,990.11
2022-10-19T06:56:44.862Z,990.11
2022-10-19T06:57:33.210Z,990.11
2022-10-19T06:57:48.678Z,990.11
2022-10-19T06:58:20.246Z,990.31
2022-10-19T06:58:50.360Z,990.31
2022-10-19T06:59:52.951Z,990.11
2022-10-19T07:00:23.851Z,990.21
2022-10-19T07:01:06.339Z,990.11
2022-10-19T07:01:24.675Z,990.11
2022-10-19T07:01:55.096Z,990.01
2022-10-19T07:02:25.804Z,990.01
2022-10-19T07:02:57.209Z,990.11
2022-10-19T07:03:30.010Z,990.11
2022-10-19T07:03:59.943Z,990.01
2022-10-19T07:05:34.723Z,990.01
2022-10-19T07:06:03.169Z,990.21
2022-10-19T07:06:34.089Z,990.21
2022-10-19T07:07:05.244Z,990.21
2022-10-19T07:07:36.605Z,990.21
2022-10-19T07:08:09.959Z,990.11
2022-10-19T07:08:40.032Z,990.11
2022-10-19T07:09:10.661Z,990.01
2022-10-19T07:09:40.637Z,990.01